Terminal Aerodrome Forecast
Issued by NWS Newport/Morehead City, NC

Home | Current Version | Previous Version | Text Only | Print | Product List | Glossary Off
Versions: 1 2 3 4 5 6 7 8 9 10 11 12 13 14 15 16

000
FTUS42 KMHX 211111 AAD
TAFEWN
TAF AMD
KEWN 211111Z 2111/2206 00000KT P6SM SCT250
     FM211700 VRB04KT P6SM BKN040
     FM220300 VRB03KT 6SM -SHRA OVC040=

USA.gov is the U.S. government's official web portal to all federal, state and local government web resources and services.